createdAt,value
2022-10-23T00:02:01.645Z,6.12
2022-10-23T00:04:28.344Z,5.98
2022-10-23T00:06:54.913Z,5.98
2022-10-23T00:09:23.966Z,5.95
2022-10-23T00:11:50.767Z,5.90
2022-10-23T00:14:22.752Z,5.92
2022-10-23T00:16:49.307Z,5.86
2022-10-23T00:19:15.982Z,5.79
2022-10-23T00:21:42.660Z,5.81
2022-10-23T00:26:35.804Z,5.84
2022-10-23T00:29:02.476Z,5.77
2022-10-23T00:31:29.439Z,5.79
2022-10-23T00:33:56.017Z,5.71
2022-10-23T00:36:22.609Z,5.70
2022-10-23T00:38:49.404Z,5.68
2022-10-23T00:41:18.918Z,5.57
2022-10-23T00:44:08.305Z,5.62
2022-10-23T00:46:35.393Z,5.58
2022-10-23T00:49:02.038Z,5.59
2022-10-23T00:51:31.141Z,5.62
2022-10-23T00:54:06.722Z,5.57
2022-10-23T00:56:45.607Z,5.51
2022-10-23T00:59:12.306Z,5.51
2022-10-23T01:01:39.075Z,5.36
2022-10-23T01:04:06.235Z,5.30
2022-10-23T01:07:02.003Z,5.42
2022-10-23T01:09:49.948Z,5.42
2022-10-23T01:12:24.307Z,5.32
2022-10-23T01:15:14.268Z,5.34
2022-10-23T01:17:48.924Z,5.41
2022-10-23T01:20:37.729Z,5.50
2022-10-23T01:23:25.296Z,5.52
2022-10-23T01:26:27.862Z,5.61
2022-10-23T01:29:05.080Z,5.58
2022-10-23T01:31:45.088Z,5.65
2022-10-23T01:34:18.437Z,5.57
2022-10-23T01:36:47.598Z,5.57
2022-10-23T01:39:38.321Z,5.52
2022-10-23T01:42:17.624Z,5.48
2022-10-23T01:44:57.681Z,5.36
2022-10-23T01:47:27.277Z,5.33
2022-10-23T01:49:54.436Z,5.26
2022-10-23T01:52:21.105Z,5.31
2022-10-23T01:54:47.789Z,5.26
2022-10-23T01:57:15.662Z,5.27
2022-10-23T01:59:48.162Z,5.15
2022-10-23T02:02:14.895Z,5.24
2022-10-23T02:05:09.255Z,5.31
2022-10-23T02:07:35.882Z,5.29
2022-10-23T02:10:06.594Z,5.30
2022-10-23T02:12:36.274Z,5.28
2022-10-23T02:15:08.391Z,5.21
2022-10-23T02:18:03.945Z,5.14
2022-10-23T02:23:19.897Z,5.07
2022-10-23T02:25:48.605Z,4.97
2022-10-23T02:28:16.308Z,4.94
2022-10-23T02:30:43.188Z,4.84
2022-10-23T02:33:09.888Z,4.88
2022-10-23T02:35:36.561Z,4.89
2022-10-23T02:38:03.246Z,4.99
2022-10-23T02:40:38.783Z,4.92
2022-10-23T02:43:10.333Z,4.93
2022-10-23T02:48:23.320Z,4.94
2022-10-23T02:50:58.420Z,4.87
2022-10-23T02:53:49.902Z,4.79
2022-10-23T02:56:28.807Z,4.72
2022-10-23T02:59:02.100Z,4.61
2022-10-23T03:01:32.706Z,4.56
2022-10-23T03:03:59.764Z,4.59
2022-10-23T03:06:26.723Z,4.47
2022-10-23T03:09:02.268Z,4.43
2022-10-23T03:11:29.668Z,4.46
2022-10-23T03:13:56.310Z,4.39
2022-10-23T03:16:22.959Z,4.36
2022-10-23T03:18:49.510Z,4.35
2022-10-23T03:21:16.107Z,4.25
2022-10-23T03:23:42.644Z,4.25
2022-10-23T03:26:09.350Z,4.32
2022-10-23T03:28:35.937Z,4.33
2022-10-23T03:31:02.967Z,4.30
2022-10-23T03:33:30.340Z,4.23
2022-10-23T03:35:56.947Z,4.27
2022-10-23T03:38:23.720Z,4.23
2022-10-23T03:40:50.279Z,4.21
2022-10-23T03:43:17.040Z,4.21
2022-10-23T03:45:43.818Z,4.09
2022-10-23T03:48:10.449Z,4.06
2022-10-23T03:50:37.094Z,4.01
2022-10-23T03:53:03.794Z,4.07
2022-10-23T03:55:30.924Z,3.99
2022-10-23T03:57:57.615Z,4.00
2022-10-23T04:00:24.309Z,3.99
2022-10-23T04:02:51.007Z,3.95
2022-10-23T04:05:18.338Z,3.93
2022-10-23T04:07:44.959Z,3.90
2022-10-23T04:10:11.558Z,3.89
2022-10-23T04:12:38.138Z,3.80
2022-10-23T04:15:05.164Z,3.74
2022-10-23T04:17:31.834Z,3.70
2022-10-23T04:19:58.466Z,3.66
2022-10-23T04:22:27.584Z,3.72
2022-10-23T04:24:55.284Z,3.78
2022-10-23T04:27:21.832Z,3.67
2022-10-23T04:29:48.482Z,3.70
2022-10-23T04:32:15.300Z,3.66
2022-10-23T04:34:41.947Z,3.59
2022-10-23T04:37:08.671Z,3.58
2022-10-23T04:39:35.336Z,3.55
2022-10-23T04:42:02.090Z,3.56
2022-10-23T04:44:28.793Z,3.43
2022-10-23T04:46:55.512Z,3.44
2022-10-23T04:49:22.191Z,3.46
2022-10-23T04:51:48.845Z,3.48
2022-10-23T04:54:15.445Z,3.32
2022-10-23T04:56:42.119Z,3.28
2022-10-23T04:59:08.796Z,3.34
2022-10-23T05:01:35.625Z,3.33
2022-10-23T05:04:02.277Z,3.34
2022-10-23T05:06:29.444Z,3.41
2022-10-23T05:08:55.973Z,3.34
2022-10-23T05:11:22.652Z,3.32
2022-10-23T05:13:49.315Z,3.26
2022-10-23T05:16:55.768Z,3.32
2022-10-23T05:19:27.294Z,3.28
2022-10-23T05:21:53.911Z,3.21
2022-10-23T05:24:20.550Z,3.18
2022-10-23T05:26:47.257Z,3.18
2022-10-23T05:29:13.932Z,3.16
2022-10-23T05:31:40.520Z,3.16
2022-10-23T05:34:09.876Z,3.18
2022-10-23T05:36:39.248Z,3.27
2022-10-23T05:39:06.113Z,3.19
2022-10-23T05:41:32.803Z,3.10
2022-10-23T05:43:59.406Z,3.11
2022-10-23T05:46:26.029Z,3.08
2022-10-23T05:48:52.811Z,3.01
2022-10-23T05:51:19.930Z,3.10
2022-10-23T05:53:46.685Z,3.09
2022-10-23T05:56:13.290Z,3.10
2022-10-23T05:58:39.942Z,3.20
2022-10-23T06:01:07.983Z,3.24
2022-10-23T06:03:34.844Z,3.35
2022-10-23T06:06:01.406Z,3.41
2022-10-23T06:08:27.985Z,3.65
2022-10-23T06:10:54.535Z,3.66
2022-10-23T06:13:21.114Z,3.78
2022-10-23T06:15:47.732Z,3.85
2022-10-23T06:18:14.323Z,3.99
2022-10-23T06:20:40.893Z,4.08
2022-10-23T06:23:07.689Z,4.24
2022-10-23T06:25:34.338Z,4.24
2022-10-23T06:28:00.981Z,4.27
2022-10-23T06:30:27.660Z,4.30
2022-10-23T06:32:54.207Z,4.31
2022-10-23T06:35:20.779Z,4.33
2022-10-23T06:37:47.358Z,4.34
2022-10-23T06:40:13.919Z,4.42
2022-10-23T06:42:40.872Z,4.45
2022-10-23T06:45:07.890Z,4.55
2022-10-23T06:47:34.471Z,4.60
2022-10-23T06:50:01.045Z,4.60
2022-10-23T06:52:46.037Z,4.75
2022-10-23T06:55:13.489Z,4.86
2022-10-23T06:57:40.458Z,4.87
2022-10-23T07:00:10.328Z,5.00
2022-10-23T07:02:37.006Z,5.07
2022-10-23T07:05:03.703Z,5.11
2022-10-23T07:07:30.788Z,5.28
2022-10-23T07:09:57.413Z,5.40
2022-10-23T07:12:23.963Z,5.58
2022-10-23T07:14:50.681Z,5.74
2022-10-23T07:17:17.197Z,5.96
2022-10-23T07:19:43.807Z,6.17
2022-10-23T07:22:13.281Z,6.37
2022-10-23T07:24:42.369Z,6.54
2022-10-23T07:27:08.891Z,6.68
2022-10-23T07:29:35.502Z,6.74
2022-10-23T07:32:02.019Z,6.91
2022-10-23T07:34:28.599Z,6.95
2022-10-23T07:36:55.259Z,7.10
2022-10-23T07:39:21.898Z,7.17
2022-10-23T07:41:49.002Z,7.21
2022-10-23T07:44:15.660Z,7.27
2022-10-23T07:46:42.171Z,7.45
2022-10-23T07:49:10.392Z,7.47
2022-10-23T07:51:37.020Z,7.49
2022-10-23T07:54:03.660Z,7.62
2022-10-23T07:56:30.283Z,7.64
2022-10-23T07:58:56.808Z,7.76
2022-10-23T08:01:31.688Z,7.88
2022-10-23T08:03:58.677Z,7.94
2022-10-23T08:06:25.246Z,7.99
2022-10-23T08:08:51.789Z,8.06
2022-10-23T08:11:19.925Z,8.13
2022-10-23T08:13:52.794Z,8.13
2022-10-23T08:16:19.481Z,8.13
2022-10-23T08:18:46.111Z,8.07
2022-10-23T08:21:12.882Z,8.31
2022-10-23T08:23:39.563Z,8.48
2022-10-23T08:26:06.515Z,8.77
2022-10-23T08:28:33.177Z,8.77
2022-10-23T08:30:59.867Z,8.93
2022-10-23T08:33:26.402Z,9.07
2022-10-23T08:35:52.928Z,8.97
2022-10-23T08:38:19.502Z,8.95
2022-10-23T08:40:46.872Z,9.03
2022-10-23T08:43:18.959Z,9.14
2022-10-23T08:45:56.760Z,9.27
2022-10-23T08:48:59.253Z,9.27
2022-10-23T08:51:37.490Z,9.21
2022-10-23T08:54:36.400Z,9.27
2022-10-23T08:57:04.550Z,9.37
2022-10-23T08:59:35.172Z,9.57
2022-10-23T09:02:07.846Z,9.55
2022-10-23T09:04:34.589Z,9.54
2022-10-23T09:07:23.225Z,9.64
2022-10-23T09:10:12.350Z,9.55
2022-10-23T09:12:38.960Z,9.64
2022-10-23T09:15:27.605Z,9.76
2022-10-23T09:18:01.940Z,9.81
2022-10-23T09:20:32.590Z,10.07
2022-10-23T09:23:15.622Z,10.09
2022-10-23T09:25:42.402Z,10.15
2022-10-23T09:28:36.603Z,10.29
2022-10-23T09:31:21.286Z,10.56
2022-10-23T09:33:58.742Z,11.34
2022-10-23T09:36:25.642Z,12.20
2022-10-23T09:38:53.647Z,13.15
2022-10-23T09:41:20.830Z,13.63
2022-10-23T09:43:47.662Z,13.65
2022-10-23T09:46:14.247Z,13.49
2022-10-23T09:48:40.882Z,13.59
2022-10-23T09:51:18.663Z,13.96
2022-10-23T09:53:49.363Z,14.18
2022-10-23T09:56:32.155Z,14.56
2022-10-23T09:59:03.468Z,14.34
2022-10-23T10:01:34.925Z,14.37
2022-10-23T10:04:01.596Z,14.36
2022-10-23T10:06:30.432Z,14.85
2022-10-23T10:08:58.658Z,14.99
2022-10-23T10:11:50.075Z,15.13
2022-10-23T10:14:35.183Z,15.37
2022-10-23T10:17:05.631Z,15.45
2022-10-23T10:19:44.324Z,15.61
2022-10-23T10:22:10.926Z,15.65
2022-10-23T10:24:57.789Z,15.95
2022-10-23T10:27:30.209Z,15.31
2022-10-23T10:30:05.768Z,15.15
2022-10-23T10:32:40.491Z,15.36
2022-10-23T10:35:20.920Z,15.38
2022-10-23T10:38:33.650Z,15.65
2022-10-23T10:41:20.095Z,15.68
2022-10-23T10:43:59.608Z,15.48
2022-10-23T10:46:57.034Z,15.43
2022-10-23T10:49:32.575Z,15.49
2022-10-23T10:52:11.196Z,15.05
2022-10-23T10:55:03.806Z,15.06
2022-10-23T10:57:45.960Z,14.92
2022-10-23T11:00:14.608Z,14.66
2022-10-23T11:02:46.665Z,14.76
2022-10-23T11:05:18.420Z,15.01
2022-10-23T11:07:57.056Z,14.90
2022-10-23T11:10:26.076Z,15.02
2022-10-23T11:12:52.915Z,14.98
2022-10-23T11:15:22.744Z,15.12
2022-10-23T11:17:52.500Z,15.37
2022-10-23T11:20:36.312Z,15.55
2022-10-23T11:23:18.983Z,15.78
2022-10-23T11:26:19.709Z,15.81
2022-10-23T11:29:29.242Z,15.59
2022-10-23T11:32:40.934Z,15.43
2022-10-23T11:35:14.334Z,15.70
2022-10-23T11:37:41.165Z,15.75
2022-10-23T11:40:10.819Z,15.84
2022-10-23T11:42:40.824Z,15.98
2022-10-23T11:45:27.285Z,16.09
2022-10-23T11:48:42.179Z,15.96
2022-10-23T11:51:28.081Z,16.12
2022-10-23T11:54:25.404Z,16.08
2022-10-23T11:57:10.308Z,16.12
2022-10-23T11:59:45.393Z,16.12
2022-10-23T12:02:24.385Z,16.06
2022-10-23T12:04:51.897Z,15.98
2022-10-23T12:07:32.525Z,15.87
2022-10-23T12:10:05.968Z,15.91
2022-10-23T12:12:36.914Z,15.94
2022-10-23T12:15:12.466Z,15.88
2022-10-23T12:17:39.132Z,15.98
2022-10-23T12:20:08.646Z,15.91
2022-10-23T12:23:02.712Z,15.82
2022-10-23T12:25:55.796Z,15.79
2022-10-23T12:28:29.659Z,15.89
2022-10-23T12:31:14.302Z,15.94
2022-10-23T12:34:01.558Z,15.91
2022-10-23T12:36:43.222Z,15.73
2022-10-23T12:39:33.933Z,15.65
2022-10-23T12:42:00.642Z,15.54
2022-10-23T12:44:27.322Z,15.70
2022-10-23T12:46:58.687Z,15.74
2022-10-23T12:49:26.626Z,15.83
2022-10-23T12:52:00.366Z,15.81
2022-10-23T12:54:26.967Z,15.77
2022-10-23T12:56:54.033Z,15.70
2022-10-23T12:59:25.683Z,15.69
2022-10-23T13:01:53.202Z,15.65
2022-10-23T13:04:25.911Z,15.67
2022-10-23T13:06:52.607Z,15.66
2022-10-23T13:09:29.420Z,15.69
2022-10-23T13:11:56.061Z,15.59
2022-10-23T13:14:39.453Z,15.56
2022-10-23T13:17:10.345Z,15.57
2022-10-23T13:19:37.001Z,15.59
2022-10-23T13:22:04.913Z,15.54
2022-10-23T13:24:31.532Z,15.53
2022-10-23T13:26:58.226Z,15.53
2022-10-23T13:29:27.783Z,15.63
2022-10-23T13:31:54.420Z,15.55
2022-10-23T13:34:30.684Z,15.49
2022-10-23T13:37:02.587Z,15.59
2022-10-23T13:39:32.997Z,15.48
2022-10-23T13:42:01.867Z,15.40
2022-10-23T13:44:28.529Z,15.27
2022-10-23T13:46:56.143Z,15.21
2022-10-23T13:49:22.820Z,15.22
2022-10-23T13:51:51.897Z,15.07
2022-10-23T13:54:23.441Z,15.10
2022-10-23T13:56:50.402Z,15.15
2022-10-23T13:59:17.300Z,15.11
2022-10-23T14:01:44.435Z,15.15
2022-10-23T14:04:11.642Z,15.10
2022-10-23T14:06:38.392Z,15.07
2022-10-23T14:09:10.569Z,15.09
2022-10-23T14:11:37.228Z,15.15
2022-10-23T14:14:03.810Z,15.12
2022-10-23T14:16:30.485Z,15.16
2022-10-23T14:18:57.156Z,15.16
2022-10-23T14:21:23.883Z,15.10
2022-10-23T14:23:51.103Z,15.07
2022-10-23T14:26:20.007Z,15.06
2022-10-23T14:28:46.733Z,15.03
2022-10-23T14:31:14.993Z,14.93
2022-10-23T14:33:41.753Z,14.83
2022-10-23T14:36:08.971Z,14.80
2022-10-23T14:38:35.783Z,14.74
2022-10-23T14:41:02.594Z,14.66
2022-10-23T14:43:29.284Z,14.68
2022-10-23T14:45:56.026Z,14.60
2022-10-23T14:48:22.887Z,14.58
2022-10-23T14:50:49.617Z,14.59
2022-10-23T14:53:16.314Z,14.55
2022-10-23T14:55:43.048Z,14.49
2022-10-23T14:58:09.634Z,14.50
2022-10-23T15:00:36.212Z,14.43
2022-10-23T15:03:02.791Z,14.43
2022-10-23T15:05:29.671Z,14.26
2022-10-23T15:07:56.457Z,14.36
2022-10-23T15:10:23.115Z,14.31
2022-10-23T15:12:49.816Z,14.20
2022-10-23T15:15:16.482Z,14.11
2022-10-23T15:17:43.124Z,14.12
2022-10-23T15:20:10.318Z,14.10
2022-10-23T15:22:36.854Z,14.01
2022-10-23T15:25:03.557Z,13.99
2022-10-23T15:27:30.175Z,13.96
2022-10-23T15:29:56.796Z,13.94
2022-10-23T15:32:23.334Z,13.87
2022-10-23T15:34:49.920Z,13.84
2022-10-23T15:37:16.477Z,13.73
2022-10-23T15:39:43.150Z,13.61
2022-10-23T15:42:09.900Z,13.47
2022-10-23T15:44:36.773Z,13.40
2022-10-23T15:47:03.506Z,13.29
2022-10-23T15:49:30.023Z,13.18
2022-10-23T15:51:56.795Z,13.03
2022-10-23T15:54:23.394Z,13.03
2022-10-23T15:56:51.586Z,12.83
2022-10-23T15:59:18.981Z,12.75
2022-10-23T16:01:45.798Z,12.66
2022-10-23T16:04:12.673Z,12.54
2022-10-23T16:06:39.399Z,12.48
2022-10-23T16:09:06.073Z,12.42
2022-10-23T16:11:35.135Z,12.26
2022-10-23T16:14:01.758Z,12.18
2022-10-23T16:16:28.464Z,12.10
2022-10-23T16:18:55.259Z,12.03
2022-10-23T16:21:26.786Z,11.86
2022-10-23T16:23:54.936Z,11.66
2022-10-23T16:26:21.787Z,11.60
2022-10-23T16:28:51.880Z,11.51
2022-10-23T16:31:20.288Z,11.58
2022-10-23T16:33:50.799Z,11.53
2022-10-23T16:36:17.737Z,11.44
2022-10-23T16:38:44.625Z,11.40
2022-10-23T16:41:11.409Z,11.29
2022-10-23T16:43:38.348Z,11.25
2022-10-23T16:46:08.961Z,11.16
2022-10-23T16:48:35.978Z,11.11
2022-10-23T16:51:07.349Z,11.03
2022-10-23T16:53:34.049Z,10.98
2022-10-23T16:56:00.975Z,10.96
2022-10-23T16:58:27.905Z,10.93
2022-10-23T17:01:08.617Z,10.85
2022-10-23T17:03:40.046Z,10.81
2022-10-23T17:06:08.854Z,10.78
2022-10-23T17:08:37.069Z,10.71
2022-10-23T17:11:24.069Z,10.70
2022-10-23T17:13:55.715Z,10.62
2022-10-23T17:16:46.735Z,10.63
2022-10-23T17:19:20.990Z,10.62
2022-10-23T17:22:02.116Z,10.53
2022-10-23T17:24:28.908Z,10.55
2022-10-23T17:26:55.501Z,10.52
2022-10-23T17:29:31.884Z,10.56
2022-10-23T17:31:58.550Z,10.47
2022-10-23T17:34:31.526Z,10.43
2022-10-23T17:36:58.211Z,10.37
2022-10-23T17:39:26.583Z,10.39
2022-10-23T17:41:58.905Z,10.29
2022-10-23T17:44:25.776Z,10.28
2022-10-23T17:46:53.163Z,10.22
2022-10-23T17:49:23.764Z,10.25
2022-10-23T17:51:54.856Z,10.20
2022-10-23T17:54:23.081Z,10.15
2022-10-23T17:56:49.798Z,10.00
2022-10-23T17:59:16.952Z,9.99
2022-10-23T18:01:43.652Z,10.04
2022-10-23T18:04:10.449Z,10.00
2022-10-23T18:06:44.525Z,10.00
2022-10-23T18:09:11.531Z,9.92
2022-10-23T18:11:43.838Z,9.88
2022-10-23T18:14:14.714Z,9.81
2022-10-23T18:16:44.994Z,9.75
2022-10-23T18:19:11.637Z,9.76
2022-10-23T18:21:40.317Z,9.77
2022-10-23T18:24:07.100Z,9.86
2022-10-23T18:26:33.900Z,9.92
2022-10-23T18:29:00.645Z,9.83
2022-10-23T18:31:27.893Z,9.81
2022-10-23T18:34:02.202Z,9.77
2022-10-23T18:36:30.940Z,9.75
2022-10-23T18:38:57.695Z,9.62
2022-10-23T18:41:24.444Z,9.58
2022-10-23T18:43:51.730Z,9.66
2022-10-23T18:46:20.682Z,9.73
2022-10-23T18:48:47.621Z,9.64
2022-10-23T18:51:27.853Z,9.70
2022-10-23T18:53:54.673Z,9.75
2022-10-23T18:56:24.822Z,9.72
2022-10-23T18:58:55.600Z,9.68
2022-10-23T19:01:22.928Z,9.71
2022-10-23T19:03:49.783Z,9.74
2022-10-23T19:06:16.775Z,9.67
2022-10-23T19:08:44.063Z,9.67
2022-10-23T19:11:11.303Z,9.70
2022-10-23T19:13:39.248Z,9.73
2022-10-23T19:16:31.093Z,9.68
2022-10-23T19:19:27.100Z,9.70
2022-10-23T19:22:12.236Z,9.62
2022-10-23T19:25:03.414Z,9.64
2022-10-23T19:27:48.809Z,9.69
2022-10-23T19:30:33.950Z,9.54
2022-10-23T19:33:19.349Z,9.50
2022-10-23T19:36:06.519Z,9.50
2022-10-23T19:38:53.174Z,9.46
2022-10-23T19:41:41.447Z,9.43
2022-10-23T19:44:27.265Z,9.47
2022-10-23T19:47:12.797Z,9.43
2022-10-23T19:49:57.915Z,9.36
2022-10-23T19:52:43.157Z,9.42
2022-10-23T19:55:28.549Z,9.43
2022-10-23T19:58:13.861Z,9.42
2022-10-23T20:00:59.314Z,9.41
2022-10-23T20:03:44.700Z,9.40
2022-10-23T20:06:31.895Z,9.35
2022-10-23T20:09:20.279Z,9.10
2022-10-23T20:12:05.738Z,9.18
2022-10-23T20:14:51.131Z,9.15
2022-10-23T20:17:36.660Z,9.27
2022-10-23T20:20:21.903Z,9.31
2022-10-23T20:23:07.349Z,9.31
2022-10-23T20:25:52.466Z,9.37
2022-10-23T20:28:38.096Z,9.42
2022-10-23T20:31:24.471Z,9.37
2022-10-23T20:34:10.044Z,9.48
2022-10-23T20:36:55.365Z,9.38
2022-10-23T20:39:41.034Z,9.39
2022-10-23T20:42:26.286Z,9.48
2022-10-23T20:45:11.644Z,9.51
2022-10-23T20:47:57.059Z,9.54
2022-10-23T20:50:42.182Z,9.59
2022-10-23T20:53:27.723Z,9.65
2022-10-23T20:56:17.768Z,9.69
2022-10-23T20:59:04.950Z,9.71
2022-10-23T21:01:51.661Z,9.70
2022-10-23T21:04:37.044Z,9.73
2022-10-23T21:07:22.835Z,9.76
2022-10-23T21:10:08.624Z,9.80
2022-10-23T21:12:53.847Z,9.86
2022-10-23T21:15:39.505Z,9.77
2022-10-23T21:18:40.980Z,9.83
2022-10-23T21:21:30.105Z,9.84
2022-10-23T21:24:16.196Z,9.81
2022-10-23T21:27:01.580Z,9.79
2022-10-23T21:29:47.048Z,9.76
2022-10-23T21:32:32.585Z,9.83
2022-10-23T21:35:17.797Z,9.81
2022-10-23T21:38:03.495Z,9.84
2022-10-23T21:40:48.869Z,9.86
2022-10-23T21:43:34.195Z,9.97
2022-10-23T21:46:19.874Z,9.97
2022-10-23T21:49:05.142Z,9.93
2022-10-23T21:51:50.769Z,9.87
2022-10-23T21:54:35.985Z,9.81
2022-10-23T21:57:21.580Z,9.77
2022-10-23T22:00:07.656Z,9.76
2022-10-23T22:02:52.848Z,9.60
2022-10-23T22:05:38.245Z,9.54
2022-10-23T22:08:23.761Z,9.61
2022-10-23T22:11:09.089Z,9.67
2022-10-23T22:13:54.692Z,9.69
2022-10-23T22:16:40.135Z,9.78
2022-10-23T22:19:25.599Z,9.88
2022-10-23T22:22:11.046Z,9.86
2022-10-23T22:24:56.349Z,9.84
2022-10-23T22:27:41.891Z,9.96
2022-10-23T22:30:27.176Z,9.90
2022-10-23T22:33:12.603Z,9.94
2022-10-23T22:36:04.914Z,9.97
2022-10-23T22:38:50.466Z,9.92
2022-10-23T22:41:35.800Z,9.92
2022-10-23T22:44:21.063Z,9.97
2022-10-23T22:47:06.557Z,9.94
2022-10-23T22:49:51.933Z,9.88
2022-10-23T22:52:37.235Z,9.93
2022-10-23T22:55:22.648Z,9.94
2022-10-23T22:58:09.922Z,9.92
2022-10-23T23:01:02.596Z,9.96
2022-10-23T23:03:48.162Z,10.06
2022-10-23T23:06:34.527Z,10.01
2022-10-23T23:09:19.784Z,10.09
2022-10-23T23:12:06.165Z,10.09
2022-10-23T23:14:51.084Z,10.05
2022-10-23T23:17:36.761Z,10.09
2022-10-23T23:20:22.156Z,10.12
2022-10-23T23:23:07.663Z,10.15
2022-10-23T23:25:53.023Z,10.17
2022-10-23T23:28:38.655Z,10.20
2022-10-23T23:31:24.602Z,10.24
2022-10-23T23:34:10.317Z,10.24
2022-10-23T23:36:55.516Z,10.16
2022-10-23T23:39:41.072Z,10.17
2022-10-23T23:42:26.462Z,10.13
2022-10-23T23:45:14.654Z,10.23
2022-10-23T23:48:00.357Z,10.33
2022-10-23T23:50:45.916Z,10.49
2022-10-23T23:53:31.481Z,10.76
2022-10-23T23:56:16.908Z,11.01
2022-10-23T23:59:02.068Z,11.29
